Main page
METAR-TAF:

METAR-TAF

Airports :

Smithers Airport

Smithers, British Columbia, Canada

latitude: 54-49N, longitude: 127-11W, elevation: 1715 ft

Current weather observation

The report was made 50 minutes ago, at 19:00 UTC
Wind 6 mph from variable directions
Temperature 55°F
Humidity 41%
Pressure 30.15 in. Hg
Visibility: 25 miles
Few clouds at a height of 7000 ft
Scattered clouds at a height of 23000 ft

METAR: CYYD 191900Z VRB05KT 25SM FEW070 SCT230 13/00 A3015 RMK CU1CI3 SLP220

Time: 12:50 (19:50 UTC)

Forecast

The report was made 1 hour and 10 minutes ago, at 18:40 UTC
Forecast valid from 19 at 19 UTC to 20 at 06 UTC
Wind 6 mph from the North/Northwest
Visibility: 6 miles
Few clouds at a height of 4000 ft
From 19 at 2200 UTC
Wind 12 mph from the Northwest
Visibility: 6 miles
Scattered clouds at a height of 4000 ft
Temporary
from 19 at 22 UTC to 20 at 06 UTC
Broken clouds at a height of 4000 ft

TAF: CYYD 191840Z 1919/2006 33005KT P6SM FEW040 FM192200 32010KT P6SM SCT040 TEMPO 1922/2006 BKN040 RMK NXT FCST BY 200100Z

Weather observations and forecasts of more than 4000 airports (METAR and TAF reports).

The available stations are represented by yellow and red dots on the map.

Hover mouse over dot to see the name of the station.

Then click to see weather observations and forecasts.

To change the map : click on the green buttons with a black cross to zoom in, on the green button with a dash to zoom out, or on the green arrows for adjacent maps.


METAR-TAF: